Raiger Juan Segundo — EA3764 — position and weather

sailwx.info

Track history (hours):
 
Tides and Currents Weather Stations Pressure Air Temp Water Temp Dewpoint Dewpoint Depression Visibility Wind Speed Wind Dir Waves Ship Positions

Raiger Juan Segundo

Last reported at 2017-Nov-27 14:39 UTC. Time now 2017-Dec-12 02:54 UTC.
Position N 43°34' W 005°41'.
Warning: this ship's position is 14 days out of date.

Length 16 m; draft 16.5 m.

Type: Fishing. MMSI: 224041990.

Date/timePositionNaut miles runAvg speedWind from/ knotsBaromVisibWave heightAir tempDewpointWater temp
2017-Nov-27 14:39N 43°34' W 005°41'1 7.1
2017-Nov-27 14:30N 43°35' W 005°40'3 6.8
2017-Nov-27 14:01N 43°38' W 005°39'1 1.7
2017-Nov-27 13:30N 43°39' W 005°39'0 0.4
2017-Nov-27 13:00N 43°39' W 005°39'0 0.8
2017-Nov-27 12:28N 43°39' W 005°39'0 0.8
2017-Nov-27 11:59N 43°39' W 005°40'1 1.0
2017-Nov-27 11:04N 43°39' W 005°41'0 0.7
2017-Nov-27 10:40N 43°39' W 005°41'0 0.9
2017-Nov-27 10:14N 43°39' W 005°41'0 1.0
2017-Nov-27 09:52N 43°39' W 005°42'1 1.3
2017-Nov-27 09:27N 43°39' W 005°43'3 3.5
2017-Nov-27 08:37N 43°41' W 005°46'1 8.1
2017-Nov-27 08:26N 43°43' W 005°46'2 4.8
2017-Nov-27 07:56N 43°45' W 005°46'6 1.6
2017-Nov-27 04:00N 43°39' W 005°43'2 5.0
2017-Nov-27 03:31N 43°39' W 005°39'2 4.7
2017-Nov-27 03:00N 43°37' W 005°40'4 7.1
2017-Nov-27 02:31N 43°33' W 005°42'0 0.1
2017-Nov-27 02:01N 43°33' W 005°42'0 0.0
2017-Nov-27 01:31N 43°33' W 005°42'0 0.0
2017-Nov-27 01:00N 43°33' W 005°42'0 0.0
2017-Nov-27 00:30N 43°33' W 005°42'0 0.0
2017-Nov-27 00:00N 43°33' W 005°42'0 0.0
2017-Nov-26 23:31N 43°33' W 005°42'0 0.0
2017-Nov-26 23:00N 43°33' W 005°42'0 0.0
2017-Nov-26 22:31N 43°33' W 005°42'0 0.0
2017-Nov-26 22:01N 43°33' W 005°42'0 0.0
2017-Nov-26 21:30N 43°33' W 005°42'0 0.0
2017-Nov-26 20:58N 43°33' W 005°42'0 0.0
2017-Nov-26 20:31N 43°33' W 005°42'0 0.0
2017-Nov-26 19:59N 43°33' W 005°42'0 0.0
2017-Nov-26 19:26N 43°33' W 005°42'0 0.0
2017-Nov-26 19:00N 43°33' W 005°42'0 0.0
2017-Nov-26 18:21N 43°33' W 005°42'0 0.0
2017-Nov-26 18:01N 43°33' W 005°42'0 0.0
2017-Nov-26 17:16N 43°33' W 005°42'0 0.0
2017-Nov-26 16:58N 43°33' W 005°42'0 0.0
2017-Nov-26 16:25N 43°33' W 005°42'0 0.0
2017-Nov-26 15:58N 43°33' W 005°42'0 0.0
2017-Nov-26 15:31N 43°33' W 005°42'0 0.0
2017-Nov-26 15:01N 43°33' W 005°42'0 0.0
2017-Nov-26 14:30N 43°33' W 005°42'0 0.0
2017-Nov-26 14:01N 43°33' W 005°42'0 0.0
2017-Nov-26 13:30N 43°33' W 005°42'0 0.0
2017-Nov-26 13:01N 43°33' W 005°42'0 0.0
2017-Nov-26 12:31N 43°33' W 005°42'0 0.0
2017-Nov-26 11:59N 43°33' W 005°42'0 0.0
2017-Nov-26 11:31N 43°33' W 005°42'0 0.0
2017-Nov-26 11:01N 43°33' W 005°42'0 0.0
2017-Nov-26 10:31N 43°33' W 005°42'0 0.0
2017-Nov-26 10:01N 43°33' W 005°42'0 0.0
2017-Nov-26 09:31N 43°33' W 005°42'0 0.0
2017-Nov-26 09:01N 43°33' W 005°42'0 0.0
2017-Nov-26 08:31N 43°33' W 005°42'0 0.0
2017-Nov-26 08:01N 43°33' W 005°42'0 0.0
2017-Nov-26 07:31N 43°33' W 005°42'0 0.0
2017-Nov-26 07:01N 43°33' W 005°42'0 0.0
2017-Nov-26 06:31N 43°33' W 005°42'0 0.0
2017-Nov-26 06:01N 43°33' W 005°42'0 0.0
2017-Nov-26 05:30N 43°33' W 005°42'0 0.0
2017-Nov-26 05:00N 43°33' W 005°42'0 0.0
2017-Nov-26 04:19N 43°33' W 005°42'0 0.0
2017-Nov-26 04:01N 43°33' W 005°42'0 0.0
2017-Nov-26 03:31N 43°33' W 005°42'0 0.0
2017-Nov-26 03:01N 43°33' W 005°42'0 0.0
2017-Nov-26 02:31N 43°33' W 005°42'0 0.0
2017-Nov-26 02:01N 43°33' W 005°42'0 0.0
2017-Nov-26 01:31N 43°33' W 005°42'0 0.0
2017-Nov-26 01:01N 43°33' W 005°42'0 0.0
2017-Nov-25 22:08N 43°33' W 005°42'0 0.0
2017-Nov-25 21:57N 43°33' W 005°42'0 0.0
2017-Nov-25 21:31N 43°33' W 005°42'0 0.0
2017-Nov-25 21:01N 43°33' W 005°42'0 0.0
2017-Nov-25 20:31N 43°33' W 005°42'0 0.0
2017-Nov-25 20:01N 43°33' W 005°42'0 0.0
2017-Nov-25 19:31N 43°33' W 005°42'0 0.0
2017-Nov-25 19:01N 43°33' W 005°42'0 0.0
2017-Nov-25 18:31N 43°33' W 005°42'0 0.0
2017-Nov-25 18:01N 43°33' W 005°42'0 0.0
2017-Nov-25 16:55N 43°33' W 005°42'0 0.0
2017-Nov-25 16:09N 43°33' W 005°42'0 0.0
2017-Nov-25 16:00N 43°33' W 005°42'0 0.0
2017-Nov-25 14:50N 43°33' W 005°42'0 0.0
2017-Nov-25 14:30N 43°33' W 005°42'0 0.0
2017-Nov-25 13:49N 43°33' W 005°42'0 0.0
2017-Nov-25 13:31N 43°33' W 005°42'0 0.0
2017-Nov-25 13:01N 43°33' W 005°42'0 0.0
2017-Nov-25 12:31N 43°33' W 005°42'0 0.0
2017-Nov-25 12:01N 43°33' W 005°42'0 0.0
2017-Nov-25 11:31N 43°33' W 005°42'0 0.0
2017-Nov-25 11:01N 43°33' W 005°42'0 0.0
2017-Nov-25 10:31N 43°33' W 005°42'0 0.0
2017-Nov-25 10:01N 43°33' W 005°42'0 0.0
2017-Nov-25 09:31N 43°33' W 005°42'0 0.0
2017-Nov-25 09:00N 43°33' W 005°42'0 0.0
2017-Nov-25 08:31N 43°33' W 005°42'0 0.0
2017-Nov-25 08:01N 43°33' W 005°42'0 0.0
2017-Nov-25 07:31N 43°33' W 005°42'0 0.0
2017-Nov-25 07:00N 43°33' W 005°42'0 0.0
2017-Nov-25 06:31N 43°33' W 005°42'0 0.0
2017-Nov-25 06:00N 43°33' W 005°42'0 0.0
2017-Nov-25 05:31N 43°33' W 005°42'0 0.0
2017-Nov-25 05:01N 43°33' W 005°42'0 0.0
2017-Nov-25 04:31N 43°33' W 005°42'0 0.0
2017-Nov-25 04:01N 43°33' W 005°42'0 0.0
2017-Nov-25 03:30N 43°33' W 005°42'0 0.0
2017-Nov-25 03:01N 43°33' W 005°42'0 0.0
2017-Nov-25 02:31N 43°33' W 005°42'0 0.0
2017-Nov-25 02:01N 43°33' W 005°42'0 0.0
2017-Nov-25 01:30N 43°33' W 005°42'0 0.0
2017-Nov-25 01:01N 43°33' W 005°42'0 0.0
2017-Nov-25 00:30N 43°33' W 005°42'0 0.0
2017-Nov-25 00:01N 43°33' W 005°42'0 0.0
2017-Nov-24 23:31N 43°33' W 005°42'0 0.0
2017-Nov-24 23:01N 43°33' W 005°42'0 0.0
2017-Nov-24 22:31N 43°33' W 005°42'0 0.0
2017-Nov-24 22:00N 43°33' W 005°42'0 0.0
2017-Nov-24 21:31N 43°33' W 005°42'0 0.0
2017-Nov-24 21:00N 43°33' W 005°42'0 0.0
2017-Nov-24 20:30N 43°33' W 005°42'0 0.0
2017-Nov-24 20:00N 43°33' W 005°42'0 0.0
2017-Nov-24 19:31N 43°33' W 005°42'0 0.0
2017-Nov-24 19:01N 43°33' W 005°42'0 0.0
2017-Nov-24 18:29N 43°33' W 005°42'0 0.0
2017-Nov-24 18:01N 43°33' W 005°42'0 0.0
2017-Nov-24 17:31N 43°33' W 005°42'0 0.0
2017-Nov-24 16:59N 43°33' W 005°42'0 0.0
2017-Nov-24 16:30N 43°33' W 005°42'1 2.9
2017-Nov-24 16:01N 43°34' W 005°40'9 6.9
2017-Nov-24 14:45N 43°43' W 005°45'0 0.8
2017-Nov-24 14:28N 43°43' W 005°45'0 0.8
2017-Nov-24 13:55N 43°43' W 005°46'0 0.8
2017-Nov-24 13:25N 43°43' W 005°46'0 0.7
2017-Nov-24 12:56N 43°43' W 005°46'2 1.9
2017-Nov-24 11:58N 43°43' W 005°44'1 0.9
2017-Nov-24 10:58N 43°42' W 005°43'0 0.7
2017-Nov-24 10:31N 43°42' W 005°43'1 0.7
2017-Nov-24 09:37N 43°42' W 005°43'1 8.2
2017-Nov-24 09:30N 43°42' W 005°42'4 7.6
2017-Nov-24 09:01N 43°39' W 005°39'2 3.2
2017-Nov-24 08:24N 43°40' W 005°41'0 0.8
2017-Nov-24 07:50N 43°40' W 005°42'0 1.1
2017-Nov-24 07:28N 43°40' W 005°41'0 0.7
2017-Nov-24 06:51N 43°41' W 005°41'0 1.1
2017-Nov-24 06:31N 43°41' W 005°40'1 1.2
2017-Nov-24 06:00N 43°40' W 005°40'  
Track history (hours):
 
Tides and Currents Weather Stations Pressure Air Temp Water Temp Dewpoint Dewpoint Depression Visibility Wind Speed Wind Dir Waves Ship Positions

Raiger Juan Segundo

Last reported at 2017-Nov-27 14:39 UTC. Time now 2017-Dec-12 02:54 UTC.
Position N 43°34' W 005°41'.
Warning: this ship's position is 14 days out of date.

Length 16 m; draft 16.5 m.

Type: Fishing. MMSI: 224041990.

Date/timePositionNaut miles runAvg speedWind from/ knotsBaromVisibWave heightAir tempDewpointWater temp
2017-Nov-27 14:39N 43°34' W 005°41'1 7.1
2017-Nov-27 14:30N 43°35' W 005°40'3 6.8
2017-Nov-27 14:01N 43°38' W 005°39'1 1.7
2017-Nov-27 13:30N 43°39' W 005°39'0 0.4
2017-Nov-27 13:00N 43°39' W 005°39'0 0.8
2017-Nov-27 12:28N 43°39' W 005°39'0 0.8
2017-Nov-27 11:59N 43°39' W 005°40'1 1.0
2017-Nov-27 11:04N 43°39' W 005°41'0 0.7
2017-Nov-27 10:40N 43°39' W 005°41'0 0.9
2017-Nov-27 10:14N 43°39' W 005°41'0 1.0
2017-Nov-27 09:52N 43°39' W 005°42'1 1.3
2017-Nov-27 09:27N 43°39' W 005°43'3 3.5
2017-Nov-27 08:37N 43°41' W 005°46'1 8.1
2017-Nov-27 08:26N 43°43' W 005°46'2 4.8
2017-Nov-27 07:56N 43°45' W 005°46'6 1.6
2017-Nov-27 04:00N 43°39' W 005°43'2 5.0
2017-Nov-27 03:31N 43°39' W 005°39'2 4.7
2017-Nov-27 03:00N 43°37' W 005°40'4 7.1
2017-Nov-27 02:31N 43°33' W 005°42'0 0.1
2017-Nov-27 02:01N 43°33' W 005°42'0 0.0
2017-Nov-27 01:31N 43°33' W 005°42'0 0.0
2017-Nov-27 01:00N 43°33' W 005°42'0 0.0
2017-Nov-27 00:30N 43°33' W 005°42'0 0.0
2017-Nov-27 00:00N 43°33' W 005°42'0 0.0
2017-Nov-26 23:31N 43°33' W 005°42'0 0.0
2017-Nov-26 23:00N 43°33' W 005°42'0 0.0
2017-Nov-26 22:31N 43°33' W 005°42'0 0.0
2017-Nov-26 22:01N 43°33' W 005°42'0 0.0
2017-Nov-26 21:30N 43°33' W 005°42'0 0.0
2017-Nov-26 20:58N 43°33' W 005°42'0 0.0
2017-Nov-26 20:31N 43°33' W 005°42'0 0.0
2017-Nov-26 19:59N 43°33' W 005°42'0 0.0
2017-Nov-26 19:26N 43°33' W 005°42'0 0.0
2017-Nov-26 19:00N 43°33' W 005°42'0 0.0
2017-Nov-26 18:21N 43°33' W 005°42'0 0.0
2017-Nov-26 18:01N 43°33' W 005°42'0 0.0
2017-Nov-26 17:16N 43°33' W 005°42'0 0.0
2017-Nov-26 16:58N 43°33' W 005°42'0 0.0
2017-Nov-26 16:25N 43°33' W 005°42'0 0.0
2017-Nov-26 15:58N 43°33' W 005°42'0 0.0
2017-Nov-26 15:31N 43°33' W 005°42'0 0.0
2017-Nov-26 15:01N 43°33' W 005°42'0 0.0
2017-Nov-26 14:30N 43°33' W 005°42'0 0.0
2017-Nov-26 14:01N 43°33' W 005°42'0 0.0
2017-Nov-26 13:30N 43°33' W 005°42'0 0.0
2017-Nov-26 13:01N 43°33' W 005°42'0 0.0
2017-Nov-26 12:31N 43°33' W 005°42'0 0.0
2017-Nov-26 11:59N 43°33' W 005°42'0 0.0
2017-Nov-26 11:31N 43°33' W 005°42'0 0.0
2017-Nov-26 11:01N 43°33' W 005°42'0 0.0
2017-Nov-26 10:31N 43°33' W 005°42'0 0.0
2017-Nov-26 10:01N 43°33' W 005°42'0 0.0
2017-Nov-26 09:31N 43°33' W 005°42'0 0.0
2017-Nov-26 09:01N 43°33' W 005°42'0 0.0
2017-Nov-26 08:31N 43°33' W 005°42'0 0.0
2017-Nov-26 08:01N 43°33' W 005°42'0 0.0
2017-Nov-26 07:31N 43°33' W 005°42'0 0.0
2017-Nov-26 07:01N 43°33' W 005°42'0 0.0
2017-Nov-26 06:31N 43°33' W 005°42'0 0.0
2017-Nov-26 06:01N 43°33' W 005°42'0 0.0
2017-Nov-26 05:30N 43°33' W 005°42'0 0.0
2017-Nov-26 05:00N 43°33' W 005°42'0 0.0
2017-Nov-26 04:19N 43°33' W 005°42'0 0.0
2017-Nov-26 04:01N 43°33' W 005°42'0 0.0
2017-Nov-26 03:31N 43°33' W 005°42'0 0.0
2017-Nov-26 03:01N 43°33' W 005°42'0 0.0
2017-Nov-26 02:31N 43°33' W 005°42'0 0.0
2017-Nov-26 02:01N 43°33' W 005°42'0 0.0
2017-Nov-26 01:31N 43°33' W 005°42'0 0.0
2017-Nov-26 01:01N 43°33' W 005°42'0 0.0
2017-Nov-25 22:08N 43°33' W 005°42'0 0.0
2017-Nov-25 21:57N 43°33' W 005°42'0 0.0
2017-Nov-25 21:31N 43°33' W 005°42'0 0.0
2017-Nov-25 21:01N 43°33' W 005°42'0 0.0
2017-Nov-25 20:31N 43°33' W 005°42'0 0.0
2017-Nov-25 20:01N 43°33' W 005°42'0 0.0
2017-Nov-25 19:31N 43°33' W 005°42'0 0.0
2017-Nov-25 19:01N 43°33' W 005°42'0 0.0
2017-Nov-25 18:31N 43°33' W 005°42'0 0.0
2017-Nov-25 18:01N 43°33' W 005°42'0 0.0
2017-Nov-25 16:55N 43°33' W 005°42'0 0.0
2017-Nov-25 16:09N 43°33' W 005°42'0 0.0
2017-Nov-25 16:00N 43°33' W 005°42'0 0.0
2017-Nov-25 14:50N 43°33' W 005°42'0 0.0
2017-Nov-25 14:30N 43°33' W 005°42'0 0.0
2017-Nov-25 13:49N 43°33' W 005°42'0 0.0
2017-Nov-25 13:31N 43°33' W 005°42'0 0.0
2017-Nov-25 13:01N 43°33' W 005°42'0 0.0
2017-Nov-25 12:31N 43°33' W 005°42'0 0.0
2017-Nov-25 12:01N 43°33' W 005°42'0 0.0
2017-Nov-25 11:31N 43°33' W 005°42'0 0.0
2017-Nov-25 11:01N 43°33' W 005°42'0 0.0
2017-Nov-25 10:31N 43°33' W 005°42'0 0.0
2017-Nov-25 10:01N 43°33' W 005°42'0 0.0
2017-Nov-25 09:31N 43°33' W 005°42'0 0.0
2017-Nov-25 09:00N 43°33' W 005°42'0 0.0
2017-Nov-25 08:31N 43°33' W 005°42'0 0.0
2017-Nov-25 08:01N 43°33' W 005°42'0 0.0
2017-Nov-25 07:31N 43°33' W 005°42'0 0.0
2017-Nov-25 07:00N 43°33' W 005°42'0 0.0
2017-Nov-25 06:31N 43°33' W 005°42'0 0.0
2017-Nov-25 06:00N 43°33' W 005°42'0 0.0
2017-Nov-25 05:31N 43°33' W 005°42'0 0.0
2017-Nov-25 05:01N 43°33' W 005°42'0 0.0
2017-Nov-25 04:31N 43°33' W 005°42'0 0.0
2017-Nov-25 04:01N 43°33' W 005°42'0 0.0
2017-Nov-25 03:30N 43°33' W 005°42'0 0.0
2017-Nov-25 03:01N 43°33' W 005°42'0 0.0
2017-Nov-25 02:31N 43°33' W 005°42'0 0.0
2017-Nov-25 02:01N 43°33' W 005°42'0 0.0
2017-Nov-25 01:30N 43°33' W 005°42'0 0.0
2017-Nov-25 01:01N 43°33' W 005°42'0 0.0
2017-Nov-25 00:30N 43°33' W 005°42'0 0.0
2017-Nov-25 00:01N 43°33' W 005°42'0 0.0
2017-Nov-24 23:31N 43°33' W 005°42'0 0.0
2017-Nov-24 23:01N 43°33' W 005°42'0 0.0
2017-Nov-24 22:31N 43°33' W 005°42'0 0.0
2017-Nov-24 22:00N 43°33' W 005°42'0 0.0
2017-Nov-24 21:31N 43°33' W 005°42'0 0.0
2017-Nov-24 21:00N 43°33' W 005°42'0 0.0
2017-Nov-24 20:30N 43°33' W 005°42'0 0.0
2017-Nov-24 20:00N 43°33' W 005°42'0 0.0
2017-Nov-24 19:31N 43°33' W 005°42'0 0.0
2017-Nov-24 19:01N 43°33' W 005°42'0 0.0
2017-Nov-24 18:29N 43°33' W 005°42'0 0.0
2017-Nov-24 18:01N 43°33' W 005°42'0 0.0
2017-Nov-24 17:31N 43°33' W 005°42'0 0.0
2017-Nov-24 16:59N 43°33' W 005°42'0 0.0
2017-Nov-24 16:30N 43°33' W 005°42'1 2.9
2017-Nov-24 16:01N 43°34' W 005°40'9 6.9
2017-Nov-24 14:45N 43°43' W 005°45'0 0.8
2017-Nov-24 14:28N 43°43' W 005°45'0 0.8
2017-Nov-24 13:55N 43°43' W 005°46'0 0.8
2017-Nov-24 13:25N 43°43' W 005°46'0 0.7
2017-Nov-24 12:56N 43°43' W 005°46'2 1.9
2017-Nov-24 11:58N 43°43' W 005°44'1 0.9
2017-Nov-24 10:58N 43°42' W 005°43'0 0.7
2017-Nov-24 10:31N 43°42' W 005°43'1 0.7
2017-Nov-24 09:37N 43°42' W 005°43'1 8.2
2017-Nov-24 09:30N 43°42' W 005°42'4 7.6
2017-Nov-24 09:01N 43°39' W 005°39'2 3.2
2017-Nov-24 08:24N 43°40' W 005°41'0 0.8
2017-Nov-24 07:50N 43°40' W 005°42'0 1.1
2017-Nov-24 07:28N 43°40' W 005°41'0 0.7
2017-Nov-24 06:51N 43°41' W 005°41'0 1.1
2017-Nov-24 06:31N 43°41' W 005°40'1 1.2
2017-Nov-24 06:00N 43°40' W 005°40'  

Dump ship's entire track history